Time;durP1;ratioP1;P1;durP2;ratioP2;P2;SDS_P1;SDS_P2;PMS_P1;PMS_P2;Temp;Humidity;BMP_temperature;BMP_pressure;BME280_temperature;BME280_humidity;BME280_pressure;Samples;Min_cycle;Max_cycle;Signal;HPM_P1;HPM_P2
2022/07/21 00:01:13;;;;;;;;;;;;;;;;;;5026975;28;20355;-67
2022/07/21 00:03:41;;;;;;;;;;;;;;;;;;5026837;28;19913;-67
2022/07/21 00:06:07;;;;;;;;;;;;;;;;;;5026443;28;19940;-67
2022/07/21 00:08:32;;;;;;;;;;;;;;;;;;5026565;28;19916;-67
2022/07/21 00:10:57;;;;;;;;;;;;;;;;;;5033966;28;19919;-67
2022/07/21 00:13:22;;;;;;;;;;;;;;;;;;5021618;28;19912;-67
2022/07/21 00:15:47;;;;;;;;;;;;;;;;;;5024736;28;19919;-67
2022/07/21 00:18:12;;;;;;;;;;;;;;;;;;5032518;28;19917;-67
2022/07/21 00:20:37;;;;;;;;;;;;;;;;;;5023314;28;20324;-67
2022/07/21 00:23:02;;;;;;;;;;;;;;;;;;5027730;28;19913;-67
2022/07/21 00:25:28;;;;;;;;;;;;;;;;;;5025240;28;19916;-67
2022/07/21 00:27:53;;;;;;;;;;;;;;;;;;5030353;28;19913;-67
2022/07/21 00:30:18;;;;;;;;;;;;;;;;;;5025062;28;19932;-67
2022/07/21 00:32:43;;;;;;;;;;;;;;;;;;5026148;28;19913;-67
2022/07/21 00:35:08;;;;;;;;;;;;;;;;;;5020174;28;19936;-67
2022/07/21 00:37:34;;;;;;;;;;;;;;;;;;5030448;28;19917;-67
2022/07/21 00:39:59;;;;;;;;;;;;;;;;;;5030488;28;19916;-67
2022/07/21 00:42:24;;;;;;;;;;;;;;;;;;5027744;28;19913;-67
2022/07/21 00:44:49;;;;;;;;;;;;;;;;;;5023264;28;19951;-67
2022/07/21 00:47:14;;;;;;;;;;;;;;;;;;5027375;28;19916;-67
2022/07/21 00:49:41;;;;;;;;;;;;;;;;;;5024376;28;19912;-67
2022/07/21 00:52:06;;;;;;;;;;;;;;;;;;5027127;28;20249;-67
2022/07/21 00:54:31;;;;;;;;;;;;;;;;;;5015787;28;20335;-67
2022/07/21 00:56:56;;;;;;;;;;;;;;;;;;5029762;28;19913;-66
2022/07/21 00:59:21;;;;;;;;;;;;;;;;;;5026055;28;19904;-67
2022/07/21 01:01:46;;;;;;;;;;;;;;;;;;5026179;28;19912;-66
2022/07/21 01:04:11;;;;;;;;;;;;;;;;;;5019874;28;19908;-66
2022/07/21 01:06:36;;;;;;;;;;;;;;;;;;5027161;28;19913;-66
2022/07/21 01:09:01;;;;;;;;;;;;;;;;;;5028726;28;19916;-66
2022/07/21 01:11:27;;;;;;;;;;;;;;;;;;5033585;28;20361;-66
2022/07/21 01:13:52;;;;;;;;;;;;;;;;;;5021763;28;19913;-66
2022/07/21 01:16:17;;;;;;;;;;;;;;;;;;5018799;28;19944;-66
2022/07/21 01:18:42;;;;;;;;;;;;;;;;;;5023642;28;20359;-66
2022/07/21 01:21:07;;;;;;;;;;;;;;;;;;5017140;28;20326;-66
2022/07/21 01:23:32;;;;;;;;;;;;;;;;;;5027535;28;20310;-66
2022/07/21 01:25:57;;;;;;;;;;;;;;;;;;5020395;28;19971;-66
2022/07/21 01:28:22;;;;;;;;;;;;;;;;;;5020841;28;19959;-66
2022/07/21 01:30:47;;;;;;;;;;;;;;;;;;5022860;28;19991;-66
2022/07/21 01:33:13;;;;;;;;;;;;;;;;;;5025291;28;20172;-66
2022/07/21 01:35:38;;;;;;;;;;;;;;;;;;5025403;28;19919;-66
2022/07/21 01:38:03;;;;;;;;;;;;;;;;;;5027208;28;19918;-66
2022/07/21 01:43:12;;;;;;;;;;;;;;;;;;5031597;28;20037;-66
2022/07/21 01:45:37;;;;;;;;;;;;;;;;;;5024415;28;19937;-66
2022/07/21 01:48:02;;;;;;;;;;;;;;;;;;5018699;28;20318;-66
2022/07/21 01:50:27;;;;;;;;;;;;;;;;;;5019664;28;20276;-66
2022/07/21 01:52:52;;;;;;;;;;;;;;;;;;5024752;28;19913;-66
2022/07/21 01:55:17;;;;;;;;;;;;;;;;;;5014351;28;19920;-66
2022/07/21 01:57:42;;;;;;;;;;;;;;;;;;5016997;28;19918;-66
2022/07/21 02:00:07;;;;;;;;;;;;;;;;;;5020977;28;19932;-66
2022/07/21 02:02:33;;;;;;;;;;;;;;;;;;5013109;28;19920;-66
2022/07/21 02:04:58;;;;;;;;;;;;;;;;;;5018780;28;19909;-66
2022/07/21 02:07:23;;;;;;;;;;;;;;;;;;5018425;28;20360;-66
2022/07/21 02:09:48;;;;;;;;;;;;;;;;;;5020500;28;20335;-66
2022/07/21 02:12:13;;;;;;;;;;;;;;;;;;5021386;28;20279;-66
2022/07/21 02:14:38;;;;;;;;;;;;;;;;;;5009021;28;20252;-66
2022/07/21 02:17:03;;;;;;;;;;;;;;;;;;5016613;28;20380;-66
2022/07/21 02:19:28;;;;;;;;;;;;;;;;;;5017793;28;19959;-66
2022/07/21 02:21:53;;;;;;;;;;;;;;;;;;5015072;28;19916;-66
2022/07/21 02:24:19;;;;;;;;;;;;;;;;;;5017558;28;19914;-66
2022/07/21 02:26:44;;;;;;;;;;;;;;;;;;5019846;28;20375;-66
2022/07/21 02:29:09;;;;;;;;;;;;;;;;;;5028926;28;19920;-66
2022/07/21 02:31:34;;;;;;;;;;;;;;;;;;5024319;28;19913;-66
2022/07/21 02:33:59;;;;;;;;;;;;;;;;;;5017933;28;19936;-66
2022/07/21 02:36:24;;;;;;;;;;;;;;;;;;5025175;28;19917;-66
2022/07/21 02:38:50;;;;;;;;;;;;;;;;;;5024862;28;20453;-66
2022/07/21 02:41:15;;;;;;;;;;;;;;;;;;5022591;28;20291;-66
2022/07/21 02:43:40;;;;;;;;;;;;;;;;;;5022416;28;20383;-66
2022/07/21 02:46:05;;;;;;;;;;;;;;;;;;5031289;28;19919;-66
2022/07/21 02:48:30;;;;;;;;;;;;;;;;;;5030517;28;19917;-66
2022/07/21 02:50:55;;;;;;;;;;;;;;;;;;5032298;28;20031;-66
2022/07/21 02:53:22;;;;;;;;;;;;;;;;;;5020676;28;19912;-65
2022/07/21 02:55:47;;;;;;;;;;;;;;;;;;5024264;28;19942;-66
2022/07/21 02:58:12;;;;;;;;;;;;;;;;;;5024584;28;19924;-66
2022/07/21 03:00:37;;;;;;;;;;;;;;;;;;5032469;28;20112;-66
2022/07/21 03:03:03;;;;;;;;;;;;;;;;;;5028460;28;19920;-66
2022/07/21 03:05:28;;;;;;;;;;;;;;;;;;5035071;28;19913;-65
2022/07/21 03:07:53;;;;;;;;;;;;;;;;;;5023559;28;19917;-66
2022/07/21 03:10:18;;;;;;;;;;;;;;;;;;5028774;28;19913;-66
2022/07/21 03:12:44;;;;;;;;;;;;;;;;;;5026138;28;19921;-66
2022/07/21 03:15:09;;;;;;;;;;;;;;;;;;5023115;28;20427;-66
2022/07/21 03:17:34;;;;;;;;;;;;;;;;;;5026574;28;19913;-66
2022/07/21 03:19:59;;;;;;;;;;;;;;;;;;5027877;28;19917;-66
2022/07/21 03:22:24;;;;;;;;;;;;;;;;;;5021499;28;19913;-67
2022/07/21 03:24:50;;;;;;;;;;;;;;;;;;5024307;28;19999;-66
2022/07/21 03:27:15;;;;;;;;;;;;;;;;;;5024931;28;19924;-66
2022/07/21 03:29:40;;;;;;;;;;;;;;;;;;5032375;28;19917;-66
2022/07/21 03:32:06;;;;;;;;;;;;;;;;;;5022375;28;20041;-66
2022/07/21 03:34:31;;;;;;;;;;;;;;;;;;5022426;28;20643;-66
2022/07/21 03:36:56;;;;;;;;;;;;;;;;;;5022740;28;19913;-66
2022/07/21 03:39:21;;;;;;;;;;;;;;;;;;5036599;28;20015;-66
2022/07/21 03:41:46;;;;;;;;;;;;;;;;;;5025199;28;20403;-66
2022/07/21 03:44:11;;;;;;;;;;;;;;;;;;5033142;28;19913;-65
2022/07/21 03:46:36;;;;;;;;;;;;;;;;;;5023820;28;19949;-66
2022/07/21 03:49:01;;;;;;;;;;;;;;;;;;5037729;28;20096;-66
2022/07/21 03:51:26;;;;;;;;;;;;;;;;;;5020359;28;19917;-66
2022/07/21 03:53:51;;;;;;;;;;;;;;;;;;5025475;28;19913;-66
2022/07/21 03:56:16;;;;;;;;;;;;;;;;;;5025528;28;19944;-66
2022/07/21 03:58:42;;;;;;;;;;;;;;;;;;5026225;28;20023;-66
2022/07/21 04:01:07;;;;;;;;;;;;;;;;;;5023298;28;20328;-67
2022/07/21 04:03:33;;;;;;;;;;;;;;;;;;5026254;28;19919;-66
2022/07/21 04:05:58;;;;;;;;;;;;;;;;;;5029399;28;20004;-66
2022/07/21 04:08:25;;;;;;;;;;;;;;;;;;5024199;28;19920;-66
2022/07/21 04:10:50;;;;;;;;;;;;;;;;;;5024282;28;19924;-67
2022/07/21 04:13:15;;;;;;;;;;;;;;;;;;5026871;28;19916;-66
2022/07/21 04:15:40;;;;;;;;;;;;;;;;;;5029530;28;20011;-66
2022/07/21 04:18:05;;;;;;;;;;;;;;;;;;5023649;28;20228;-66
2022/07/21 04:20:30;;;;;;;;;;;;;;;;;;5030276;28;19976;-66
2022/07/21 04:22:55;;;;;;;;;;;;;;;;;;5027092;28;19920;-66
2022/07/21 04:25:20;;;;;;;;;;;;;;;;;;5034427;28;19916;-66
2022/07/21 04:27:46;;;;;;;;;;;;;;;;;;5025190;28;19921;-66
2022/07/21 04:30:11;;;;;;;;;;;;;;;;;;5019872;28;19953;-66
2022/07/21 04:32:36;;;;;;;;;;;;;;;;;;5021396;28;20387;-66
2022/07/21 04:35:01;;;;;;;;;;;;;;;;;;5027988;28;20346;-66
2022/07/21 04:37:26;;;;;;;;;;;;;;;;;;5030424;28;19919;-66
2022/07/21 04:39:51;;;;;;;;;;;;;;;;;;5026287;28;20381;-66
2022/07/21 04:42:16;;;;;;;;;;;;;;;;;;5015411;28;19913;-66
2022/07/21 04:44:41;;;;;;;;;;;;;;;;;;5025520;28;19956;-66
2022/07/21 04:47:06;;;;;;;;;;;;;;;;;;5031980;28;20378;-66
2022/07/21 04:49:31;;;;;;;;;;;;;;;;;;5028466;28;19913;-66
2022/07/21 04:51:56;;;;;;;;;;;;;;;;;;5026276;28;20084;-66
2022/07/21 04:54:22;;;;;;;;;;;;;;;;;;5026248;28;19916;-65
2022/07/21 04:56:47;;;;;;;;;;;;;;;;;;5025725;28;19962;-65
2022/07/21 04:59:12;;;;;;;;;;;;;;;;;;5026919;28;20503;-65
2022/07/21 05:01:37;;;;;;;;;;;;;;;;;;5020977;28;19951;-66
2022/07/21 05:04:02;;;;;;;;;;;;;;;;;;5022540;28;19959;-65
2022/07/21 05:06:27;;;;;;;;;;;;;;;;;;5020620;28;19954;-65
2022/07/21 05:08:52;;;;;;;;;;;;;;;;;;5025521;28;19912;-65
2022/07/21 05:11:26;;;;;;;;;;;;;;;;;;5059156;28;20397;-66
2022/07/21 05:13:51;;;;;;;;;;;;;;;;;;5054691;28;20003;-66
2022/07/21 05:16:16;;;;;;;;;;;;;;;;;;5056539;28;20337;-66
2022/07/21 05:18:41;;;;;;;;;;;;;;;;;;5053091;28;20011;-66
2022/07/21 05:21:07;;;;;;;;;;;;;;;;;;5053051;28;20355;-66
2022/07/21 05:23:32;;;;;;;;;;;;;;;;;;5054942;28;19923;-67
2022/07/21 05:25:57;;;;;;;;;;;;;;;;;;5057652;28;20019;-66
2022/07/21 05:28:22;;;;;;;;;;;;;;;;;;5060975;28;19916;-66
2022/07/21 05:30:47;;;;;;;;;;;;;;;;;;5050784;28;20223;-66
2022/07/21 05:33:12;;;;;;;;;;;;;;;;;;5058659;28;20365;-67
2022/07/21 05:35:37;;;;;;;;;;;;;;;;;;5060735;28;20350;-67
2022/07/21 05:38:02;;;;;;;;;;;;;;;;;;5062177;28;20003;-67
2022/07/21 05:40:27;;;;;;;;;;;;;;;;;;5060308;28;19917;-67
2022/07/21 05:42:52;;;;;;;;;;;;;;;;;;5055465;28;19917;-67
2022/07/21 05:45:18;;;;;;;;;;;;;;;;;;5047892;28;20265;-67
2022/07/21 05:47:43;;;;;;;;;;;;;;;;;;5056648;28;19913;-67
2022/07/21 05:50:08;;;;;;;;;;;;;;;;;;5055006;28;19929;-67
2022/07/21 05:52:33;;;;;;;;;;;;;;;;;;5053209;28;19954;-67
2022/07/21 05:54:58;;;;;;;;;;;;;;;;;;5051783;28;19936;-67
2022/07/21 05:57:23;;;;;;;;;;;;;;;;;;5053624;28;19983;-67
2022/07/21 05:59:48;;;;;;;;;;;;;;;;;;5059651;28;19921;-67
2022/07/21 06:02:13;;;;;;;;;;;;;;;;;;5053746;28;19944;-67
2022/07/21 06:04:39;;;;;;;;;;;;;;;;;;5054397;28;19916;-67
2022/07/21 06:07:04;;;;;;;;;;;;;;;;;;5058746;28;20356;-67
2022/07/21 06:09:29;;;;;;;;;;;;;;;;;;5052665;28;19925;-67
2022/07/21 06:11:54;;;;;;;;;;;;;;;;;;5056606;28;20332;-67
2022/07/21 06:14:19;;;;;;;;;;;;;;;;;;5055568;28;19955;-67
2022/07/21 06:16:44;;;;;;;;;;;;;;;;;;5056769;28;19982;-67
2022/07/21 06:19:09;;;;;;;;;;;;;;;;;;5050048;28;19987;-67
2022/07/21 06:21:34;;;;;;;;;;;;;;;;;;5051072;28;19935;-67
2022/07/21 06:23:59;;;;;;;;;;;;;;;;;;5043793;28;19932;-67
2022/07/21 06:26:24;;;;;;;;;;;;;;;;;;5040085;28;19913;-67
2022/07/21 06:28:50;;;;;;;;;;;;;;;;;;5038724;28;19917;-67
2022/07/21 06:31:15;;;;;;;;;;;;;;;;;;5060153;28;19960;-67
2022/07/21 06:33:40;;;;;;;;;;;;;;;;;;5043380;28;20627;-68
2022/07/21 06:36:05;;;;;;;;;;;;;;;;;;5036317;28;20413;-67
2022/07/21 06:38:31;;;;;;;;;;;;;;;;;;5034372;28;19917;-67
2022/07/21 06:40:56;;;;;;;;;;;;;;;;;;5037527;28;19952;-67
2022/07/21 06:43:21;;;;;;;;;;;;;;;;;;5048225;28;19999;-67
2022/07/21 06:45:46;;;;;;;;;;;;;;;;;;5043644;28;20005;-67
2022/07/21 06:48:12;;;;;;;;;;;;;;;;;;5048996;28;19921;-68
2022/07/21 06:50:37;;;;;;;;;;;;;;;;;;5038865;28;20634;-67
2022/07/21 06:53:02;;;;;;;;;;;;;;;;;;5045745;28;20293;-68
2022/07/21 06:55:27;;;;;;;;;;;;;;;;;;5040733;28;19912;-68
2022/07/21 06:57:52;;;;;;;;;;;;;;;;;;5045931;28;19921;-68
2022/07/21 07:00:17;;;;;;;;;;;;;;;;;;5033107;28;19920;-68
2022/07/21 07:02:42;;;;;;;;;;;;;;;;;;5034187;28;19917;-71
2022/07/21 07:05:07;;;;;;;;;;;;;;;;;;5038495;28;20367;-68
2022/07/21 07:07:33;;;;;;;;;;;;;;;;;;5044536;28;19917;-68
2022/07/21 07:09:59;;;;;;;;;;;;;;;;;;5037070;28;19921;-68
2022/07/21 07:12:24;;;;;;;;;;;;;;;;;;5042027;28;19917;-68
2022/07/21 07:14:49;;;;;;;;;;;;;;;;;;5036599;28;19920;-68
2022/07/21 07:17:14;;;;;;;;;;;;;;;;;;5038485;28;20383;-72
2022/07/21 07:19:39;;;;;;;;;;;;;;;;;;5036864;28;19999;-72
2022/07/21 07:22:04;;;;;;;;;;;;;;;;;;5038846;28;19920;-71
2022/07/21 07:24:29;;;;;;;;;;;;;;;;;;5033033;28;19916;-70
2022/07/21 07:26:56;;;;;;;;;;;;;;;;;;5038327;28;20430;-72
2022/07/21 07:29:21;;;;;;;;;;;;;;;;;;5041527;28;19920;-70
2022/07/21 07:31:46;;;;;;;;;;;;;;;;;;5034753;28;19921;-69
2022/07/21 07:34:11;;;;;;;;;;;;;;;;;;5034959;28;20216;-72
2022/07/21 07:36:37;;;;;;;;;;;;;;;;;;5043332;28;19921;-70
2022/07/21 07:39:02;;;;;;;;;;;;;;;;;;5033655;28;19913;-71
2022/07/21 07:41:28;;;;;;;;;;;;;;;;;;5034643;28;20189;-72
2022/07/21 07:43:54;;;;;;;;;;;;;;;;;;5041042;28;19971;-69
2022/07/21 07:46:19;;;;;;;;;;;;;;;;;;5034107;28;19925;-73
2022/07/21 07:48:44;;;;;;;;;;;;;;;;;;5042114;28;20418;-70
2022/07/21 07:51:09;;;;;;;;;;;;;;;;;;5034793;28;19972;-70
2022/07/21 07:53:34;;;;;;;;;;;;;;;;;;5038481;28;19920;-70
2022/07/21 07:55:59;;;;;;;;;;;;;;;;;;5034229;28;19916;-73
2022/07/21 07:58:24;;;;;;;;;;;;;;;;;;5038839;28;20090;-71
2022/07/21 08:00:49;;;;;;;;;;;;;;;;;;5029517;28;19917;-70
2022/07/21 08:03:14;;;;;;;;;;;;;;;;;;5038257;28;19921;-71
2022/07/21 08:05:39;;;;;;;;;;;;;;;;;;5034268;28;19921;-71
2022/07/21 08:08:05;;;;;;;;;;;;;;;;;;5029989;28;19978;-70
2022/07/21 08:10:30;;;;;;;;;;;;;;;;;;5034808;28;20363;-70
2022/07/21 08:12:55;;;;;;;;;;;;;;;;;;5039014;28;20279;-70
2022/07/21 08:15:20;;;;;;;;;;;;;;;;;;5029251;28;20232;-71
2022/07/21 08:17:45;;;;;;;;;;;;;;;;;;5032765;28;19924;-70
2022/07/21 08:20:10;;;;;;;;;;;;;;;;;;5031675;28;20376;-70
2022/07/21 08:22:35;;;;;;;;;;;;;;;;;;5032380;28;19916;-68
2022/07/21 08:25:00;;;;;;;;;;;;;;;;;;5028089;28;19920;-70
2022/07/21 08:27:25;;;;;;;;;;;;;;;;;;5028624;28;19913;-69
2022/07/21 08:29:52;;;;;;;;;;;;;;;;;;5029643;28;20647;-68
2022/07/21 08:32:17;;;;;;;;;;;;;;;;;;5032706;28;19921;-69
2022/07/21 08:34:43;;;;;;;;;;;;;;;;;;5030408;28;20282;-70
2022/07/21 08:37:08;;;;;;;;;;;;;;;;;;5036279;28;19939;-70
2022/07/21 08:39:33;;;;;;;;;;;;;;;;;;5038578;28;19923;-68
2022/07/21 08:41:58;;;;;;;;;;;;;;;;;;5034902;28;19917;-70
2022/07/21 08:44:23;;;;;;;;;;;;;;;;;;5034514;28;19913;-69
2022/07/21 08:46:49;;;;;;;;;;;;;;;;;;5038670;28;20011;-69
2022/07/21 08:49:14;;;;;;;;;;;;;;;;;;5037707;28;20291;-69
2022/07/21 08:51:39;;;;;;;;;;;;;;;;;;5036072;28;19920;-68
2022/07/21 08:54:04;;;;;;;;;;;;;;;;;;5033234;28;19913;-69
2022/07/21 08:56:29;;;;;;;;;;;;;;;;;;5033724;28;20279;-68
2022/07/21 08:58:54;;;;;;;;;;;;;;;;;;5035878;28;19925;-67
2022/07/21 09:01:23;;;;;;;;;;;;;;;;;;5032404;28;19913;-69
2022/07/21 09:03:48;;;;;;;;;;;;;;;;;;5042196;28;19924;-68
2022/07/21 09:06:15;;;;;;;;;;;;;;;;;;5032225;28;19921;-68
2022/07/21 09:08:40;;;;;;;;;;;;;;;;;;5031880;28;19923;-67
2022/07/21 09:11:05;;;;;;;;;;;;;;;;;;5027369;28;19921;-68
2022/07/21 09:13:31;;;;;;;;;;;;;;;;;;5033401;28;19999;-68
2022/07/21 09:15:56;;;;;;;;;;;;;;;;;;5029391;28;19924;-69
2022/07/21 09:18:21;;;;;;;;;;;;;;;;;;5037297;28;20000;-74
2022/07/21 09:20:46;;;;;;;;;;;;;;;;;;5036075;28;20398;-72
2022/07/21 09:23:11;;;;;;;;;;;;;;;;;;5033425;28;19917;-71
2022/07/21 09:25:36;;;;;;;;;;;;;;;;;;5032045;28;19917;-69
2022/07/21 09:28:01;;;;;;;;;;;;;;;;;;5040061;28;20340;-68
2022/07/21 09:30:26;;;;;;;;;;;;;;;;;;5032732;28;19968;-67
2022/07/21 09:32:51;;;;;;;;;;;;;;;;;;5039014;28;19917;-68
2022/07/21 09:35:16;;;;;;;;;;;;;;;;;;5037286;28;20272;-68
2022/07/21 09:37:41;;;;;;;;;;;;;;;;;;5035396;28;20055;-67
2022/07/21 09:40:07;;;;;;;;;;;;;;;;;;5032047;28;19928;-69
2022/07/21 09:42:32;;;;;;;;;;;;;;;;;;5035868;28;19936;-71
2022/07/21 09:44:57;;;;;;;;;;;;;;;;;;5037170;28;19917;-69
2022/07/21 09:47:22;;;;;;;;;;;;;;;;;;5033197;28;19920;-68
2022/07/21 09:49:47;;;;;;;;;;;;;;;;;;5030821;28;19924;-68
2022/07/21 09:52:13;;;;;;;;;;;;;;;;;;5034165;28;19913;-67
2022/07/21 09:54:38;;;;;;;;;;;;;;;;;;5029471;28;20401;-70
2022/07/21 09:57:03;;;;;;;;;;;;;;;;;;5036560;28;19913;-68
2022/07/21 09:59:28;;;;;;;;;;;;;;;;;;5039891;28;19920;-68
2022/07/21 10:01:53;;;;;;;;;;;;;;;;;;5040613;28;20606;-68
2022/07/21 10:04:18;;;;;;;;;;;;;;;;;;5036289;28;19917;-67
2022/07/21 10:06:43;;;;;;;;;;;;;;;;;;5037598;28;19917;-68
2022/07/21 10:09:08;;;;;;;;;;;;;;;;;;5040396;28;19917;-68
2022/07/21 10:11:33;;;;;;;;;;;;;;;;;;5034445;28;20313;-68
2022/07/21 10:13:58;;;;;;;;;;;;;;;;;;5040062;28;19923;-68
2022/07/21 10:16:23;;;;;;;;;;;;;;;;;;5032681;28;20428;-68
2022/07/21 10:18:49;;;;;;;;;;;;;;;;;;5032675;28;19921;-68
2022/07/21 10:21:14;;;;;;;;;;;;;;;;;;5031916;28;19928;-68
2022/07/21 10:23:39;;;;;;;;;;;;;;;;;;5031700;28;19996;-68
2022/07/21 10:26:05;;;;;;;;;;;;;;;;;;5036705;28;19991;-68
2022/07/21 10:28:30;;;;;;;;;;;;;;;;;;5043203;28;20359;-68
2022/07/21 10:30:55;;;;;;;;;;;;;;;;;;5037324;28;20789;-68
2022/07/21 10:33:20;;;;;;;;;;;;;;;;;;5039677;28;19941;-68
2022/07/21 10:35:45;;;;;;;;;;;;;;;;;;5030680;28;19944;-69
2022/07/21 10:38:10;;;;;;;;;;;;;;;;;;5037160;28;19920;-70
2022/07/21 10:40:35;;;;;;;;;;;;;;;;;;5032590;28;19916;-70
2022/07/21 10:43:01;;;;;;;;;;;;;;;;;;5041921;28;19913;-69
2022/07/21 10:45:26;;;;;;;;;;;;;;;;;;5032659;28;19956;-69
2022/07/21 10:47:51;;;;;;;;;;;;;;;;;;5031093;28;19940;-69
2022/07/21 10:50:16;;;;;;;;;;;;;;;;;;5040714;28;20020;-70
2022/07/21 10:52:41;;;;;;;;;;;;;;;;;;5033922;28;19963;-70
2022/07/21 10:55:07;;;;;;;;;;;;;;;;;;5031450;28;19967;-70
2022/07/21 10:57:32;;;;;;;;;;;;;;;;;;5034294;28;19917;-69
2022/07/21 10:59:57;;;;;;;;;;;;;;;;;;5036751;28;20667;-68
2022/07/21 11:02:22;;;;;;;;;;;;;;;;;;5037060;28;20395;-68
2022/07/21 11:04:47;;;;;;;;;;;;;;;;;;5035511;28;19917;-68
2022/07/21 11:07:12;;;;;;;;;;;;;;;;;;5039081;28;19920;-68
2022/07/21 11:09:37;;;;;;;;;;;;;;;;;;5031961;28;19925;-69
2022/07/21 11:12:03;;;;;;;;;;;;;;;;;;5041789;28;20347;-68
2022/07/21 11:14:28;;;;;;;;;;;;;;;;;;5035975;28;19917;-69
2022/07/21 11:16:54;;;;;;;;;;;;;;;;;;5037304;28;20370;-69
2022/07/21 11:19:19;;;;;;;;;;;;;;;;;;5038039;28;19924;-70
2022/07/21 11:21:44;;;;;;;;;;;;;;;;;;5033287;28;19913;-69
2022/07/21 11:24:09;;;;;;;;;;;;;;;;;;5038144;28;19924;-70
2022/07/21 11:26:34;;;;;;;;;;;;;;;;;;5034300;28;20379;-74
2022/07/21 11:28:59;;;;;;;;;;;;;;;;;;5034503;28;19917;-70
2022/07/21 11:31:24;;;;;;;;;;;;;;;;;;5032374;28;20015;-71
2022/07/21 11:33:50;;;;;;;;;;;;;;;;;;5033503;28;20272;-71
2022/07/21 11:36:15;;;;;;;;;;;;;;;;;;5033932;28;19917;-69
2022/07/21 11:38:40;;;;;;;;;;;;;;;;;;5034175;28;19921;-71
2022/07/21 11:41:05;;;;;;;;;;;;;;;;;;5037391;28;19912;-69
2022/07/21 11:43:30;;;;;;;;;;;;;;;;;;5038358;28;19963;-68
2022/07/21 11:45:55;;;;;;;;;;;;;;;;;;5029396;28;19917;-68
2022/07/21 11:48:20;;;;;;;;;;;;;;;;;;5033709;28;19917;-70
2022/07/21 11:50:45;;;;;;;;;;;;;;;;;;5035838;28;20454;-68
2022/07/21 11:53:10;;;;;;;;;;;;;;;;;;5036878;28;19924;-69
2022/07/21 11:55:35;;;;;;;;;;;;;;;;;;5038344;28;19917;-68
2022/07/21 11:58:01;;;;;;;;;;;;;;;;;;5034086;28;19955;-69
2022/07/21 12:00:26;;;;;;;;;;;;;;;;;;5033265;28;19975;-69
2022/07/21 12:02:51;;;;;;;;;;;;;;;;;;5030842;28;20280;-69
2022/07/21 12:05:16;;;;;;;;;;;;;;;;;;5035563;28;19928;-69
2022/07/21 12:07:41;;;;;;;;;;;;;;;;;;5034062;28;19917;-69
2022/07/21 12:10:06;;;;;;;;;;;;;;;;;;5028159;28;20130;-69
2022/07/21 12:12:31;;;;;;;;;;;;;;;;;;5035609;28;20513;-69
2022/07/21 12:14:56;;;;;;;;;;;;;;;;;;5034631;28;19978;-68
2022/07/21 12:17:21;;;;;;;;;;;;;;;;;;5033538;28;19978;-69
2022/07/21 12:19:47;;;;;;;;;;;;;;;;;;5036731;28;19967;-70
2022/07/21 12:22:12;;;;;;;;;;;;;;;;;;5034192;28;19917;-70
2022/07/21 12:24:37;;;;;;;;;;;;;;;;;;5035751;28;19952;-69
2022/07/21 12:27:02;;;;;;;;;;;;;;;;;;5035087;28;19916;-70
2022/07/21 12:29:27;;;;;;;;;;;;;;;;;;5036495;28;19913;-69
2022/07/21 12:31:52;;;;;;;;;;;;;;;;;;5033141;28;19917;-69
2022/07/21 12:34:18;;;;;;;;;;;;;;;;;;5032309;28;19916;-69
2022/07/21 12:36:44;;;;;;;;;;;;;;;;;;5033268;28;19917;-70
2022/07/21 12:39:09;;;;;;;;;;;;;;;;;;5033825;28;19928;-68
2022/07/21 12:41:34;;;;;;;;;;;;;;;;;;5037984;28;20286;-69
2022/07/21 12:43:59;;;;;;;;;;;;;;;;;;5033250;28;19967;-69
2022/07/21 12:46:24;;;;;;;;;;;;;;;;;;5030524;28;19931;-68
2022/07/21 12:48:49;;;;;;;;;;;;;;;;;;5031403;28;19962;-69
2022/07/21 12:51:14;;;;;;;;;;;;;;;;;;5030280;28;19927;-68
2022/07/21 12:53:39;;;;;;;;;;;;;;;;;;5032512;28;20340;-71
2022/07/21 12:56:04;;;;;;;;;;;;;;;;;;5034198;28;19971;-69
2022/07/21 12:58:29;;;;;;;;;;;;;;;;;;5038045;28;19917;-68
2022/07/21 13:00:55;;;;;;;;;;;;;;;;;;5032698;28;19916;-69
2022/07/21 13:03:20;;;;;;;;;;;;;;;;;;5033238;28;19944;-69
2022/07/21 13:05:45;;;;;;;;;;;;;;;;;;5036908;28;19924;-69
2022/07/21 13:08:10;;;;;;;;;;;;;;;;;;5036334;28;20233;-69
2022/07/21 13:10:35;;;;;;;;;;;;;;;;;;5032470;28;19956;-70
2022/07/21 13:13:00;;;;;;;;;;;;;;;;;;5035277;28;20608;-68
2022/07/21 13:15:25;;;;;;;;;;;;;;;;;;5033831;28;19956;-69
2022/07/21 13:17:51;;;;;;;;;;;;;;;;;;5035624;28;19917;-68
2022/07/21 13:20:16;;;;;;;;;;;;;;;;;;5033266;28;20417;-68
2022/07/21 13:22:41;;;;;;;;;;;;;;;;;;5029839;28;20431;-68
2022/07/21 13:25:06;;;;;;;;;;;;;;;;;;5032012;28;19920;-68
2022/07/21 13:27:32;;;;;;;;;;;;;;;;;;5033937;28;19924;-68
2022/07/21 13:29:57;;;;;;;;;;;;;;;;;;5034280;28;20513;-68
2022/07/21 13:32:22;;;;;;;;;;;;;;;;;;5034887;28;19927;-68
2022/07/21 13:34:47;;;;;;;;;;;;;;;;;;5038130;28;19924;-69
2022/07/21 13:37:12;;;;;;;;;;;;;;;;;;5038757;28;19928;-68
2022/07/21 13:39:37;;;;;;;;;;;;;;;;;;5036345;28;19921;-68
2022/07/21 13:42:02;;;;;;;;;;;;;;;;;;5038549;28;20016;-69
2022/07/21 13:44:27;;;;;;;;;;;;;;;;;;5037663;28;19921;-69
2022/07/21 13:46:52;;;;;;;;;;;;;;;;;;5038219;28;19925;-69
2022/07/21 13:49:17;;;;;;;;;;;;;;;;;;5035106;28;20432;-68
2022/07/21 13:51:43;;;;;;;;;;;;;;;;;;5031247;28;19920;-68
2022/07/21 13:54:08;;;;;;;;;;;;;;;;;;5040454;28;19925;-68
2022/07/21 13:56:33;;;;;;;;;;;;;;;;;;5043016;28;20474;-68
2022/07/21 13:58:58;;;;;;;;;;;;;;;;;;5042442;28;20464;-68
2022/07/21 14:01:23;;;;;;;;;;;;;;;;;;5041771;28;19916;-68
2022/07/21 14:03:48;;;;;;;;;;;;;;;;;;5042253;28;20009;-69
2022/07/21 14:06:13;;;;;;;;;;;;;;;;;;5044586;28;20303;-69
2022/07/21 14:08:38;;;;;;;;;;;;;;;;;;5037120;28;19928;-69
2022/07/21 14:11:04;;;;;;;;;;;;;;;;;;5036060;28;20225;-69
2022/07/21 14:13:29;;;;;;;;;;;;;;;;;;5043680;28;20665;-69
2022/07/21 14:15:54;;;;;;;;;;;;;;;;;;5037749;28;19958;-68
2022/07/21 14:18:19;;;;;;;;;;;;;;;;;;5034916;28;19974;-69
2022/07/21 14:20:44;;;;;;;;;;;;;;;;;;5038991;28;19921;-69
2022/07/21 14:23:09;;;;;;;;;;;;;;;;;;5034689;28;20458;-69
2022/07/21 14:25:34;;;;;;;;;;;;;;;;;;5041913;28;19999;-70
2022/07/21 14:28:00;;;;;;;;;;;;;;;;;;5033212;28;19966;-69
2022/07/21 14:30:25;;;;;;;;;;;;;;;;;;5037257;28;19959;-69
2022/07/21 14:32:50;;;;;;;;;;;;;;;;;;5036345;28;19928;-69
2022/07/21 14:35:16;;;;;;;;;;;;;;;;;;5041404;28;19947;-69
2022/07/21 14:37:41;;;;;;;;;;;;;;;;;;5039388;28;20058;-68
2022/07/21 14:40:08;;;;;;;;;;;;;;;;;;5038520;28;20290;-68
2022/07/21 14:42:33;;;;;;;;;;;;;;;;;;5039478;28;19928;-68
2022/07/21 14:44:58;;;;;;;;;;;;;;;;;;5035594;28;19921;-68
2022/07/21 14:47:23;;;;;;;;;;;;;;;;;;5032974;28;19921;-68
2022/07/21 14:49:48;;;;;;;;;;;;;;;;;;5038018;28;19987;-68
2022/07/21 14:52:13;;;;;;;;;;;;;;;;;;5038669;28;21794;-73
2022/07/21 14:54:38;;;;;;;;;;;;;;;;;;5033035;28;19968;-70
2022/07/21 14:57:04;;;;;;;;;;;;;;;;;;5038444;28;20268;-68
2022/07/21 14:59:29;;;;;;;;;;;;;;;;;;5037861;28;20044;-71
2022/07/21 15:01:55;;;;;;;;;;;;;;;;;;5034055;28;19967;-68
2022/07/21 15:04:21;;;;;;;;;;;;;;;;;;5030136;28;19921;-69
2022/07/21 15:06:47;;;;;;;;;;;;;;;;;;5029169;28;20465;-68
2022/07/21 15:09:12;;;;;;;;;;;;;;;;;;5037205;28;19920;-70
2022/07/21 15:11:37;;;;;;;;;;;;;;;;;;5029102;28;20383;-70
2022/07/21 15:14:03;;;;;;;;;;;;;;;;;;5036463;28;19948;-68
2022/07/21 15:16:28;;;;;;;;;;;;;;;;;;5024904;28;19973;-68
2022/07/21 15:18:53;;;;;;;;;;;;;;;;;;5035782;28;20053;-68
2022/07/21 15:21:18;;;;;;;;;;;;;;;;;;5038525;28;19928;-69
2022/07/21 15:23:43;;;;;;;;;;;;;;;;;;5034090;28;19956;-68
2022/07/21 15:26:09;;;;;;;;;;;;;;;;;;5033542;28;20035;-71
2022/07/21 15:28:34;;;;;;;;;;;;;;;;;;5039431;28;19920;-70
2022/07/21 15:30:59;;;;;;;;;;;;;;;;;;5037029;28;20568;-69
2022/07/21 15:33:24;;;;;;;;;;;;;;;;;;5034776;28;19921;-70
2022/07/21 15:35:53;;;;;;;;;;;;;;;;;;5034819;28;19917;-70
2022/07/21 15:38:19;;;;;;;;;;;;;;;;;;5038207;28;19943;-70
2022/07/21 15:40:44;;;;;;;;;;;;;;;;;;5033468;28;19921;-70
2022/07/21 15:43:10;;;;;;;;;;;;;;;;;;5035907;28;19928;-70
2022/07/21 15:45:35;;;;;;;;;;;;;;;;;;5033145;28;20645;-71
2022/07/21 15:48:00;;;;;;;;;;;;;;;;;;5035846;28;20011;-73
2022/07/21 15:50:25;;;;;;;;;;;;;;;;;;5033376;28;19925;-71
2022/07/21 15:52:50;;;;;;;;;;;;;;;;;;5033332;28;19921;-69
2022/07/21 15:55:17;;;;;;;;;;;;;;;;;;5034244;28;20366;-71
2022/07/21 15:57:42;;;;;;;;;;;;;;;;;;5033507;28;19921;-71
2022/07/21 16:00:08;;;;;;;;;;;;;;;;;;5038284;28;19923;-69
2022/07/21 16:02:33;;;;;;;;;;;;;;;;;;5036942;28;19982;-69
2022/07/21 16:04:58;;;;;;;;;;;;;;;;;;5036394;28;20454;-69
2022/07/21 16:07:23;;;;;;;;;;;;;;;;;;5037934;28;19927;-70
2022/07/21 16:09:48;;;;;;;;;;;;;;;;;;5038769;28;19921;-69
2022/07/21 16:12:13;;;;;;;;;;;;;;;;;;5038846;28;19921;-71
2022/07/21 16:14:39;;;;;;;;;;;;;;;;;;5037079;28;19968;-70
2022/07/21 16:17:04;;;;;;;;;;;;;;;;;;5032035;28;19913;-69
2022/07/21 16:19:29;;;;;;;;;;;;;;;;;;5034873;28;19924;-72
2022/07/21 16:21:54;;;;;;;;;;;;;;;;;;5033376;28;19917;-69
2022/07/21 16:24:19;;;;;;;;;;;;;;;;;;5036185;28;19964;-70
2022/07/21 16:26:44;;;;;;;;;;;;;;;;;;5035047;28;19921;-69
2022/07/21 16:29:09;;;;;;;;;;;;;;;;;;5036191;28;19917;-70
2022/07/21 16:31:34;;;;;;;;;;;;;;;;;;5033510;28;19921;-71
2022/07/21 16:33:59;;;;;;;;;;;;;;;;;;5031974;28;20004;-70